sensor_id;sensor_type;location;lat;lon;timestamp;pressure;altitude;pressure_sealevel;temperature;humidity
68994;BME280;56054;50.968;5.816;2024-03-08T00:02:40;100180.38;;;1.74;90.17
68994;BME280;56054;50.968;5.816;2024-03-08T00:05:48;100186.00;;;1.70;90.87
68994;BME280;56054;50.968;5.816;2024-03-08T00:08:55;100172.16;;;1.68;90.34
68994;BME280;56054;50.968;5.816;2024-03-08T00:12:02;100163.31;;;1.64;90.47
68994;BME280;56054;50.968;5.816;2024-03-08T00:15:09;100166.50;;;1.62;90.91
68994;BME280;56054;50.968;5.816;2024-03-08T00:18:17;100163.53;;;1.57;91.36
68994;BME280;56054;50.968;5.816;2024-03-08T00:21:24;100156.81;;;1.49;91.45
68994;BME280;56054;50.968;5.816;2024-03-08T00:24:32;100160.97;;;1.57;91.19
68994;BME280;56054;50.968;5.816;2024-03-08T00:27:39;100153.50;;;1.50;91.28
68994;BME280;56054;50.968;5.816;2024-03-08T00:30:46;100156.69;;;1.47;91.79
68994;BME280;56054;50.968;5.816;2024-03-08T00:33:53;100150.03;;;1.31;93.04
68994;BME280;56054;50.968;5.816;2024-03-08T00:37:00;100155.44;;;1.34;93.13
68994;BME280;56054;50.968;5.816;2024-03-08T00:40:08;100151.91;;;1.23;93.38
68994;BME280;56054;50.968;5.816;2024-03-08T00:43:15;100152.59;;;1.31;93.75
68994;BME280;56054;50.968;5.816;2024-03-08T00:46:22;100144.50;;;1.26;93.79
68994;BME280;56054;50.968;5.816;2024-03-08T00:49:29;100146.94;;;1.24;93.38
68994;BME280;56054;50.968;5.816;2024-03-08T00:52:37;100131.72;;;1.26;93.61
68994;BME280;56054;50.968;5.816;2024-03-08T00:55:44;100133.63;;;1.10;94.66
68994;BME280;56054;50.968;5.816;2024-03-08T00:58:51;100125.63;;;1.15;94.01
68994;BME280;56054;50.968;5.816;2024-03-08T01:02:01;100133.78;;;1.11;95.12
68994;BME280;56054;50.968;5.816;2024-03-08T01:05:08;100130.38;;;1.02;94.93
68994;BME280;56054;50.968;5.816;2024-03-08T01:08:15;100134.78;;;1.03;95.69
68994;BME280;56054;50.968;5.816;2024-03-08T01:11:22;100128.59;;;1.01;95.67
68994;BME280;56054;50.968;5.816;2024-03-08T01:14:29;100124.16;;;0.90;96.05
68994;BME280;56054;50.968;5.816;2024-03-08T01:17:37;100114.25;;;0.93;96.63
68994;BME280;56054;50.968;5.816;2024-03-08T01:20:44;100111.78;;;0.94;96.57
68994;BME280;56054;50.968;5.816;2024-03-08T01:23:51;100110.94;;;0.85;96.74
68994;BME280;56054;50.968;5.816;2024-03-08T01:26:58;100111.88;;;0.85;96.87
68994;BME280;56054;50.968;5.816;2024-03-08T01:30:05;100112.50;;;0.83;97.49
68994;BME280;56054;50.968;5.816;2024-03-08T01:33:13;100113.00;;;0.70;98.21
68994;BME280;56054;50.968;5.816;2024-03-08T01:36:20;100116.38;;;0.88;97.05
68994;BME280;56054;50.968;5.816;2024-03-08T01:39:27;100103.91;;;0.82;98.38
68994;BME280;56054;50.968;5.816;2024-03-08T01:42:34;100105.03;;;0.76;98.70
68994;BME280;56054;50.968;5.816;2024-03-08T01:45:41;100100.84;;;0.68;98.57
68994;BME280;56054;50.968;5.816;2024-03-08T01:48:48;100094.84;;;0.67;99.22
68994;BME280;56054;50.968;5.816;2024-03-08T01:51:55;100094.56;;;0.64;99.34
68994;BME280;56054;50.968;5.816;2024-03-08T01:55:03;100091.44;;;0.58;99.83
68994;BME280;56054;50.968;5.816;2024-03-08T01:58:17;100080.16;;;0.56;99.91
68994;BME280;56054;50.968;5.816;2024-03-08T02:01:25;100077.19;;;0.51;100.00
68994;BME280;56054;50.968;5.816;2024-03-08T02:04:32;100076.16;;;0.49;100.00
68994;BME280;56054;50.968;5.816;2024-03-08T02:07:41;100071.38;;;0.43;100.00
68994;BME280;56054;50.968;5.816;2024-03-08T02:10:48;100066.25;;;0.43;100.00
68994;BME280;56054;50.968;5.816;2024-03-08T02:13:55;100065.25;;;0.41;100.00
68994;BME280;56054;50.968;5.816;2024-03-08T02:17:02;100056.81;;;0.42;100.00
68994;BME280;56054;50.968;5.816;2024-03-08T02:20:09;100061.22;;;0.35;100.00
68994;BME280;56054;50.968;5.816;2024-03-08T02:23:16;100044.50;;;0.38;100.00
68994;BME280;56054;50.968;5.816;2024-03-08T02:26:23;100048.75;;;0.29;100.00
68994;BME280;56054;50.968;5.816;2024-03-08T02:29:31;100039.88;;;0.34;100.00
68994;BME280;56054;50.968;5.816;2024-03-08T02:32:39;100039.88;;;0.34;100.00
68994;BME280;56054;50.968;5.816;2024-03-08T02:35:47;100045.38;;;0.39;100.00
68994;BME280;56054;50.968;5.816;2024-03-08T02:38:54;100040.00;;;0.36;100.00
68994;BME280;56054;50.968;5.816;2024-03-08T02:42:01;100039.38;;;0.38;100.00
68994;BME280;56054;50.968;5.816;2024-03-08T02:45:08;100036.75;;;0.28;100.00
68994;BME280;56054;50.968;5.816;2024-03-08T02:48:15;100035.09;;;0.29;100.00
68994;BME280;56054;50.968;5.816;2024-03-08T02:51:22;100025.81;;;0.20;100.00
68994;BME280;56054;50.968;5.816;2024-03-08T02:54:29;100023.19;;;0.29;100.00
68994;BME280;56054;50.968;5.816;2024-03-08T02:57:36;100015.69;;;0.31;100.00
68994;BME280;56054;50.968;5.816;2024-03-08T03:00:44;100015.94;;;0.15;100.00
68994;BME280;56054;50.968;5.816;2024-03-08T03:03:51;100019.91;;;0.30;100.00
68994;BME280;56054;50.968;5.816;2024-03-08T03:06:58;100019.16;;;0.04;100.00
68994;BME280;56054;50.968;5.816;2024-03-08T03:10:05;100013.34;;;-0.04;100.00
68994;BME280;56054;50.968;5.816;2024-03-08T03:13:13;100005.94;;;0.08;100.00
68994;BME280;56054;50.968;5.816;2024-03-08T03:16:20;100007.28;;;0.04;100.00
68994;BME280;56054;50.968;5.816;2024-03-08T03:19:27;100005.06;;;-0.02;100.00
68994;BME280;56054;50.968;5.816;2024-03-08T03:22:34;100000.50;;;0.05;100.00
68994;BME280;56054;50.968;5.816;2024-03-08T03:25:41;99992.44;;;0.00;100.00
68994;BME280;56054;50.968;5.816;2024-03-08T03:28:48;99984.91;;;0.02;100.00
68994;BME280;56054;50.968;5.816;2024-03-08T03:31:55;99990.38;;;-0.13;100.00
68994;BME280;56054;50.968;5.816;2024-03-08T03:35:02;99988.88;;;-0.11;100.00
68994;BME280;56054;50.968;5.816;2024-03-08T03:38:09;99985.00;;;-0.16;100.00
68994;BME280;56054;50.968;5.816;2024-03-08T03:41:16;99976.31;;;-0.18;100.00
68994;BME280;56054;50.968;5.816;2024-03-08T03:44:23;99976.75;;;-0.22;100.00
68994;BME280;56054;50.968;5.816;2024-03-08T03:47:30;99975.44;;;-0.27;100.00
68994;BME280;56054;50.968;5.816;2024-03-08T03:50:37;99985.81;;;-0.26;100.00
68994;BME280;56054;50.968;5.816;2024-03-08T03:53:44;99971.97;;;-0.19;100.00
68994;BME280;56054;50.968;5.816;2024-03-08T03:56:51;99973.94;;;-0.25;100.00
68994;BME280;56054;50.968;5.816;2024-03-08T03:59:58;99973.38;;;-0.31;100.00
68994;BME280;56054;50.968;5.816;2024-03-08T04:03:13;99960.19;;;-0.36;100.00
68994;BME280;56054;50.968;5.816;2024-03-08T04:06:20;99955.69;;;-0.38;100.00
68994;BME280;56054;50.968;5.816;2024-03-08T04:09:35;99948.31;;;-0.35;100.00
68994;BME280;56054;50.968;5.816;2024-03-08T04:12:42;99955.09;;;-0.45;100.00
68994;BME280;56054;50.968;5.816;2024-03-08T04:15:49;99956.00;;;-0.44;100.00
68994;BME280;56054;50.968;5.816;2024-03-08T04:18:56;99950.00;;;-0.45;100.00
68994;BME280;56054;50.968;5.816;2024-03-08T04:22:03;99946.28;;;-0.48;100.00
68994;BME280;56054;50.968;5.816;2024-03-08T04:25:10;99945.50;;;-0.47;100.00
68994;BME280;56054;50.968;5.816;2024-03-08T04:28:18;99943.28;;;-0.53;100.00
68994;BME280;56054;50.968;5.816;2024-03-08T04:31:25;99947.31;;;-0.46;100.00
68994;BME280;56054;50.968;5.816;2024-03-08T04:34:32;99942.06;;;-0.48;100.00
68994;BME280;56054;50.968;5.816;2024-03-08T04:37:39;99945.50;;;-0.47;100.00
68994;BME280;56054;50.968;5.816;2024-03-08T04:40:46;99935.91;;;-0.50;100.00
68994;BME280;56054;50.968;5.816;2024-03-08T04:43:53;99941.78;;;-0.51;100.00
68994;BME280;56054;50.968;5.816;2024-03-08T04:47:00;99937.13;;;-0.55;100.00
68994;BME280;56054;50.968;5.816;2024-03-08T04:50:07;99923.50;;;-0.55;100.00
68994;BME280;56054;50.968;5.816;2024-03-08T04:53:15;99934.75;;;-0.53;100.00
68994;BME280;56054;50.968;5.816;2024-03-08T04:56:22;99925.88;;;-0.57;100.00
68994;BME280;56054;50.968;5.816;2024-03-08T04:59:29;99921.56;;;-0.58;100.00
68994;BME280;56054;50.968;5.816;2024-03-08T05:02:37;99920.78;;;-0.57;100.00
68994;BME280;56054;50.968;5.816;2024-03-08T05:05:44;99922.91;;;-0.61;100.00
68994;BME280;56054;50.968;5.816;2024-03-08T05:08:51;99909.53;;;-0.59;100.00
68994;BME280;56054;50.968;5.816;2024-03-08T05:11:58;99917.69;;;-0.63;100.00
68994;BME280;56054;50.968;5.816;2024-03-08T05:15:05;99917.38;;;-0.66;100.00
68994;BME280;56054;50.968;5.816;2024-03-08T05:18:13;99919.19;;;-0.65;100.00
68994;BME280;56054;50.968;5.816;2024-03-08T05:21:20;99913.03;;;-0.67;100.00
68994;BME280;56054;50.968;5.816;2024-03-08T05:24:27;99906.88;;;-0.69;100.00
68994;BME280;56054;50.968;5.816;2024-03-08T05:27:35;99908.69;;;-0.68;100.00
68994;BME280;56054;50.968;5.816;2024-03-08T05:30:42;99902.06;;;-0.66;100.00
68994;BME280;56054;50.968;5.816;2024-03-08T05:33:49;99897.56;;;-0.69;100.00
68994;BME280;56054;50.968;5.816;2024-03-08T05:36:57;99903.72;;;-0.67;100.00
68994;BME280;56054;50.968;5.816;2024-03-08T05:40:05;99898.94;;;-0.72;100.00
68994;BME280;56054;50.968;5.816;2024-03-08T05:43:12;99899.94;;;-0.61;100.00
68994;BME280;56054;50.968;5.816;2024-03-08T05:46:19;99901.78;;;-0.69;100.00
68994;BME280;56054;50.968;5.816;2024-03-08T05:49:26;99890.97;;;-0.67;100.00
68994;BME280;56054;50.968;5.816;2024-03-08T05:52:33;99891.44;;;-0.71;100.00
68994;BME280;56054;50.968;5.816;2024-03-08T05:55:41;99888.59;;;-0.74;100.00
68994;BME280;56054;50.968;5.816;2024-03-08T05:58:48;99882.03;;;-0.80;100.00
68994;BME280;56054;50.968;5.816;2024-03-08T06:01:55;99878.25;;;-0.75;100.00
68994;BME280;56054;50.968;5.816;2024-03-08T06:05:02;99864.75;;;-0.74;100.00
68994;BME280;56054;50.968;5.816;2024-03-08T06:08:09;99875.41;;;-0.78;100.00
68994;BME280;56054;50.968;5.816;2024-03-08T06:11:17;99869.41;;;-0.79;100.00
68994;BME280;56054;50.968;5.816;2024-03-08T06:14:24;99868.34;;;-0.72;100.00
68994;BME280;56054;50.968;5.816;2024-03-08T06:17:31;99863.25;;;-0.72;100.00
68994;BME280;56054;50.968;5.816;2024-03-08T06:20:38;99853.50;;;-0.76;100.00
68994;BME280;56054;50.968;5.816;2024-03-08T06:23:45;99849.63;;;-0.81;100.00
68994;BME280;56054;50.968;5.816;2024-03-08T06:26:52;99846.47;;;-0.79;100.00
68994;BME280;56054;50.968;5.816;2024-03-08T06:30:00;99846.63;;;-0.77;100.00
68994;BME280;56054;50.968;5.816;2024-03-08T06:33:07;99853.78;;;-0.73;100.00
68994;BME280;56054;50.968;5.816;2024-03-08T06:36:16;99851.97;;;-0.66;100.00
68994;BME280;56054;50.968;5.816;2024-03-08T06:39:23;99848.38;;;-0.68;100.00
68994;BME280;56054;50.968;5.816;2024-03-08T06:42:30;99849.25;;;-0.67;100.00
68994;BME280;56054;50.968;5.816;2024-03-08T06:45:37;99853.09;;;-0.53;100.00
68994;BME280;56054;50.968;5.816;2024-03-08T06:48:44;99853.97;;;-0.53;100.00
68994;BME280;56054;50.968;5.816;2024-03-08T06:51:51;99860.41;;;-0.48;100.00
68994;BME280;56054;50.968;5.816;2024-03-08T06:54:58;99852.75;;;-0.48;100.00
68994;BME280;56054;50.968;5.816;2024-03-08T06:58:05;99865.97;;;-0.52;100.00
68994;BME280;56054;50.968;5.816;2024-03-08T07:01:13;99858.63;;;-0.49;100.00
68994;BME280;56054;50.968;5.816;2024-03-08T07:04:27;99855.84;;;-0.41;100.00
68994;BME280;56054;50.968;5.816;2024-03-08T07:07:34;99861.38;;;-0.37;100.00
68994;BME280;56054;50.968;5.816;2024-03-08T07:10:41;99853.09;;;-0.34;100.00
68994;BME280;56054;50.968;5.816;2024-03-08T07:13:48;99847.06;;;-0.26;100.00
68994;BME280;56054;50.968;5.816;2024-03-08T07:16:55;99843.19;;;-0.12;100.00
68994;BME280;56054;50.968;5.816;2024-03-08T07:20:02;99843.19;;;-0.12;100.00
68994;BME280;56054;50.968;5.816;2024-03-08T07:23:09;99846.16;;;-0.08;100.00
68994;BME280;56054;50.968;5.816;2024-03-08T07:26:16;99843.97;;;0.06;100.00
68994;BME280;56054;50.968;5.816;2024-03-08T07:29:23;99840.00;;;0.09;100.00
68994;BME280;56054;50.968;5.816;2024-03-08T07:32:30;99832.25;;;0.08;100.00
68994;BME280;56054;50.968;5.816;2024-03-08T07:35:37;99832.06;;;0.25;100.00
68994;BME280;56054;50.968;5.816;2024-03-08T07:38:45;99814.94;;;0.24;100.00
68994;BME280;56054;50.968;5.816;2024-03-08T07:41:52;99819.34;;;0.35;100.00
68994;BME280;56054;50.968;5.816;2024-03-08T07:44:59;99812.97;;;0.40;100.00
68994;BME280;56054;50.968;5.816;2024-03-08T07:48:07;99811.03;;;0.57;100.00
68994;BME280;56054;50.968;5.816;2024-03-08T07:51:17;99804.88;;;0.55;100.00
68994;BME280;56054;50.968;5.816;2024-03-08T07:54:24;99803.13;;;0.64;100.00
68994;BME280;56054;50.968;5.816;2024-03-08T07:57:31;99797.72;;;0.61;100.00
68994;BME280;56054;50.968;5.816;2024-03-08T08:00:38;99787.25;;;0.68;100.00
68994;BME280;56054;50.968;5.816;2024-03-08T08:03:45;99785.75;;;0.70;100.00
68994;BME280;56054;50.968;5.816;2024-03-08T08:06:52;99790.00;;;0.80;100.00
68994;BME280;56054;50.968;5.816;2024-03-08T08:09:59;99788.38;;;0.91;100.00
68994;BME280;56054;50.968;5.816;2024-03-08T08:13:06;99785.56;;;0.98;100.00
68994;BME280;56054;50.968;5.816;2024-03-08T08:16:13;99782.88;;;1.06;100.00
68994;BME280;56054;50.968;5.816;2024-03-08T08:19:20;99778.31;;;1.13;100.00
68994;BME280;56054;50.968;5.816;2024-03-08T08:22:27;99768.19;;;1.14;100.00
68994;BME280;56054;50.968;5.816;2024-03-08T08:25:34;99764.22;;;1.28;99.76
68994;BME280;56054;50.968;5.816;2024-03-08T08:28:41;99764.22;;;1.38;99.54
68994;BME280;56054;50.968;5.816;2024-03-08T08:31:48;99749.75;;;1.39;99.44
68994;BME280;56054;50.968;5.816;2024-03-08T08:34:55;99756.44;;;1.47;98.29
68994;BME280;56054;50.968;5.816;2024-03-08T08:38:02;99757.06;;;1.55;98.58
68994;BME280;56054;50.968;5.816;2024-03-08T08:41:09;99740.41;;;1.60;97.56
68994;BME280;56054;50.968;5.816;2024-03-08T08:44:17;99740.53;;;1.61;97.40
68994;BME280;56054;50.968;5.816;2024-03-08T08:47:24;99743.56;;;1.78;96.95
68994;BME280;56054;50.968;5.816;2024-03-08T08:50:31;99732.56;;;1.79;97.28
68994;BME280;56054;50.968;5.816;2024-03-08T08:53:42;99726.63;;;1.90;95.73
68994;BME280;56054;50.968;5.816;2024-03-08T08:56:49;99731.50;;;1.87;95.20
68994;BME280;56054;50.968;5.816;2024-03-08T08:59:56;99726.16;;;1.84;95.51
68994;BME280;56054;50.968;5.816;2024-03-08T09:03:03;99729.91;;;2.09;94.72
68994;BME280;56054;50.968;5.816;2024-03-08T09:06:10;99722.22;;;2.09;94.78
68994;BME280;56054;50.968;5.816;2024-03-08T09:09:17;99707.94;;;2.23;93.97
68994;BME280;56054;50.968;5.816;2024-03-08T09:12:24;99705.63;;;2.26;94.09
68994;BME280;56054;50.968;5.816;2024-03-08T09:15:31;99707.50;;;2.39;92.75
68994;BME280;56054;50.968;5.816;2024-03-08T09:18:38;99704.81;;;2.38;91.35
68994;BME280;56054;50.968;5.816;2024-03-08T09:21:45;99695.09;;;2.55;90.28
68994;BME280;56054;50.968;5.816;2024-03-08T09:24:52;99696.69;;;2.65;89.83
68994;BME280;56054;50.968;5.816;2024-03-08T09:27:59;99691.09;;;2.81;89.18
68994;BME280;56054;50.968;5.816;2024-03-08T09:31:06;99692.63;;;2.79;88.50
68994;BME280;56054;50.968;5.816;2024-03-08T09:34:13;99682.97;;;2.65;87.36
68994;BME280;56054;50.968;5.816;2024-03-08T09:37:20;99676.53;;;2.70;88.17
68994;BME280;56054;50.968;5.816;2024-03-08T09:40:27;99656.44;;;2.64;86.93
68994;BME280;56054;50.968;5.816;2024-03-08T09:43:34;99660.00;;;2.88;88.04
68994;BME280;56054;50.968;5.816;2024-03-08T09:46:42;99658.72;;;3.17;88.25
68994;BME280;56054;50.968;5.816;2024-03-08T09:49:49;99651.84;;;2.94;87.49
68994;BME280;56054;50.968;5.816;2024-03-08T09:52:56;99647.00;;;3.09;88.07
68994;BME280;56054;50.968;5.816;2024-03-08T09:56:03;99642.34;;;3.15;86.99
68994;BME280;56054;50.968;5.816;2024-03-08T09:59:10;99643.13;;;3.26;86.09
68994;BME280;56054;50.968;5.816;2024-03-08T10:02:17;99632.50;;;3.21;86.16
68994;BME280;56054;50.968;5.816;2024-03-08T10:05:24;99637.88;;;3.48;85.99
68994;BME280;56054;50.968;5.816;2024-03-08T10:08:31;99621.00;;;3.63;85.13
68994;BME280;56054;50.968;5.816;2024-03-08T10:11:45;99625.47;;;3.77;85.24
68994;BME280;56054;50.968;5.816;2024-03-08T10:14:55;99620.59;;;3.57;83.96
68994;BME280;56054;50.968;5.816;2024-03-08T10:18:02;99616.53;;;3.72;83.65
68994;BME280;56054;50.968;5.816;2024-03-08T10:21:09;99608.63;;;3.69;84.21
68994;BME280;56054;50.968;5.816;2024-03-08T10:24:17;99602.34;;;3.65;83.64
68994;BME280;56054;50.968;5.816;2024-03-08T10:27:24;99605.03;;;3.79;84.13
68994;BME280;56054;50.968;5.816;2024-03-08T10:30:31;99592.31;;;3.80;81.44
68994;BME280;56054;50.968;5.816;2024-03-08T10:33:38;99594.25;;;4.08;82.19
68994;BME280;56054;50.968;5.816;2024-03-08T10:36:45;99589.03;;;4.32;80.87
68994;BME280;56054;50.968;5.816;2024-03-08T10:40:03;99590.88;;;4.09;80.25
68994;BME280;56054;50.968;5.816;2024-03-08T10:43:21;99584.00;;;4.33;79.17
68994;BME280;56054;50.968;5.816;2024-03-08T10:50:19;99563.22;;;4.55;78.27
68994;BME280;56054;50.968;5.816;2024-03-08T10:53:29;99565.84;;;4.68;77.05
68994;BME280;56054;50.968;5.816;2024-03-08T10:56:36;99558.88;;;4.54;75.75
68994;BME280;56054;50.968;5.816;2024-03-08T10:59:43;99557.50;;;4.72;75.45
68994;BME280;56054;50.968;5.816;2024-03-08T11:02:50;99558.81;;;4.79;75.62
68994;BME280;56054;50.968;5.816;2024-03-08T11:05:57;99560.53;;;4.92;74.88
68994;BME280;56054;50.968;5.816;2024-03-08T11:09:43;99546.38;;;4.99;73.42
68994;BME280;56054;50.968;5.816;2024-03-08T11:12:50;99542.75;;;5.08;73.89
68994;BME280;56054;50.968;5.816;2024-03-08T11:15:59;99542.25;;;5.27;72.85
68994;BME280;56054;50.968;5.816;2024-03-08T11:19:23;99534.22;;;5.36;72.42
68994;BME280;56054;50.968;5.816;2024-03-08T11:22:32;99533.34;;;5.35;71.24
68994;BME280;56054;50.968;5.816;2024-03-08T11:25:40;99521.25;;;5.34;71.59
68994;BME280;56054;50.968;5.816;2024-03-08T11:28:47;99520.44;;;5.35;71.11
68994;BME280;56054;50.968;5.816;2024-03-08T11:32:16;99515.56;;;5.67;71.38
68994;BME280;56054;50.968;5.816;2024-03-08T11:35:23;99512.63;;;5.47;70.30
68994;BME280;56054;50.968;5.816;2024-03-08T11:38:32;99509.81;;;5.57;70.47
68994;BME280;56054;50.968;5.816;2024-03-08T11:41:39;99515.75;;;5.70;69.55
68994;BME280;56054;50.968;5.816;2024-03-08T11:44:47;99514.63;;;5.79;69.60
68994;BME280;56054;50.968;5.816;2024-03-08T11:47:54;99497.66;;;5.96;69.55
68994;BME280;56054;50.968;5.816;2024-03-08T11:51:01;99496.75;;;6.24;69.39
68994;BME280;56054;50.968;5.816;2024-03-08T11:54:12;99495.41;;;6.16;69.10
68994;BME280;56054;50.968;5.816;2024-03-08T11:57:19;99486.94;;;6.04;67.41
68994;BME280;56054;50.968;5.816;2024-03-08T12:00:26;99496.25;;;6.30;67.27
68994;BME280;56054;50.968;5.816;2024-03-08T12:03:33;99474.22;;;6.07;67.09
68994;BME280;56054;50.968;5.816;2024-03-08T12:06:40;99482.53;;;6.16;66.03
68994;BME280;56054;50.968;5.816;2024-03-08T12:13:22;99463.50;;;6.43;65.91
68994;BME280;56054;50.968;5.816;2024-03-08T12:16:29;99465.31;;;6.45;64.79
68994;BME280;56054;50.968;5.816;2024-03-08T12:19:36;99468.88;;;6.47;63.71
68994;BME280;56054;50.968;5.816;2024-03-08T12:22:44;99458.00;;;6.37;63.85
68994;BME280;56054;50.968;5.816;2024-03-08T12:25:51;99452.47;;;6.46;64.08
68994;BME280;56054;50.968;5.816;2024-03-08T12:29:26;99446.97;;;6.70;64.25
68994;BME280;56054;50.968;5.816;2024-03-08T12:32:33;99447.97;;;6.72;63.62
68994;BME280;56054;50.968;5.816;2024-03-08T12:35:40;99442.00;;;6.73;63.90
68994;BME280;56054;50.968;5.816;2024-03-08T12:38:47;99438.09;;;6.64;63.50
68994;BME280;56054;50.968;5.816;2024-03-08T12:41:54;99435.03;;;6.86;62.54
68994;BME280;56054;50.968;5.816;2024-03-08T12:45:01;99429.41;;;6.94;62.07
68994;BME280;56054;50.968;5.816;2024-03-08T12:48:14;99426.03;;;6.95;63.13
68994;BME280;56054;50.968;5.816;2024-03-08T12:51:21;99424.78;;;7.03;62.64
68994;BME280;56054;50.968;5.816;2024-03-08T12:54:28;99398.22;;;7.37;63.47
68994;BME280;56054;50.968;5.816;2024-03-08T12:57:36;99400.31;;;7.27;61.37
68994;BME280;56054;50.968;5.816;2024-03-08T13:00:43;99396.03;;;7.28;61.10
68994;BME280;56054;50.968;5.816;2024-03-08T13:03:50;99391.38;;;7.06;61.72
68994;BME280;56054;50.968;5.816;2024-03-08T13:06:57;99384.97;;;7.31;60.35
68994;BME280;56054;50.968;5.816;2024-03-08T13:10:04;99386.56;;;7.28;60.29
68994;BME280;56054;50.968;5.816;2024-03-08T13:13:12;99382.94;;;7.25;60.45
68994;BME280;56054;50.968;5.816;2024-03-08T13:16:19;99367.94;;;7.50;60.88
68994;BME280;56054;50.968;5.816;2024-03-08T13:19:26;99369.88;;;7.38;59.92
68994;BME280;56054;50.968;5.816;2024-03-08T13:22:33;99365.09;;;7.46;60.25
68994;BME280;56054;50.968;5.816;2024-03-08T13:25:40;99360.75;;;7.78;59.74
68994;BME280;56054;50.968;5.816;2024-03-08T13:28:48;99364.31;;;7.47;58.98
68994;BME280;56054;50.968;5.816;2024-03-08T13:31:55;99355.13;;;7.68;59.15
68994;BME280;56054;50.968;5.816;2024-03-08T13:35:02;99348.88;;;7.65;58.39
68994;BME280;56054;50.968;5.816;2024-03-08T13:38:09;99342.63;;;7.78;57.72
68994;BME280;56054;50.968;5.816;2024-03-08T13:41:16;99340.34;;;7.66;57.38
68994;BME280;56054;50.968;5.816;2024-03-08T13:44:23;99335.06;;;7.81;57.63
68994;BME280;56054;50.968;5.816;2024-03-08T13:47:30;99329.41;;;7.88;57.92
68994;BME280;56054;50.968;5.816;2024-03-08T13:50:37;99319.19;;;7.91;55.70
68994;BME280;56054;50.968;5.816;2024-03-08T13:53:44;99309.50;;;7.87;56.28
68994;BME280;56054;50.968;5.816;2024-03-08T13:56:51;99299.16;;;7.87;56.34
68994;BME280;56054;50.968;5.816;2024-03-08T13:59:58;99293.75;;;8.17;56.16
68994;BME280;56054;50.968;5.816;2024-03-08T14:03:13;99285.59;;;8.09;55.53
68994;BME280;56054;50.968;5.816;2024-03-08T14:06:20;99284.81;;;8.10;56.14
68994;BME280;56054;50.968;5.816;2024-03-08T14:09:27;99280.53;;;8.10;55.29
68994;BME280;56054;50.968;5.816;2024-03-08T14:12:34;99286.94;;;8.19;55.36
68994;BME280;56054;50.968;5.816;2024-03-08T14:15:41;99280.44;;;8.09;55.46
68994;BME280;56054;50.968;5.816;2024-03-08T14:18:48;99272.91;;;8.13;54.55
68994;BME280;56054;50.968;5.816;2024-03-08T14:21:55;99255.25;;;8.23;53.20
68994;BME280;56054;50.968;5.816;2024-03-08T14:25:02;99263.91;;;8.41;54.07
68994;BME280;56054;50.968;5.816;2024-03-08T14:28:09;99248.59;;;8.28;53.58
68994;BME280;56054;50.968;5.816;2024-03-08T14:31:16;99247.84;;;8.30;53.07
68994;BME280;56054;50.968;5.816;2024-03-08T14:34:23;99244.06;;;8.24;51.99
68994;BME280;56054;50.968;5.816;2024-03-08T14:37:30;99238.25;;;8.28;51.97
68994;BME280;56054;50.968;5.816;2024-03-08T14:40:37;99235.94;;;8.16;51.73
68994;BME280;56054;50.968;5.816;2024-03-08T14:43:44;99224.84;;;8.19;51.43
68994;BME280;56054;50.968;5.816;2024-03-08T14:46:57;99231.13;;;8.24;52.43
68994;BME280;56054;50.968;5.816;2024-03-08T14:50:04;99219.16;;;8.08;51.70
68994;BME280;56054;50.968;5.816;2024-03-08T14:53:11;99211.69;;;7.96;51.69
68994;BME280;56054;50.968;5.816;2024-03-08T14:56:18;99216.41;;;7.87;51.34
68994;BME280;56054;50.968;5.816;2024-03-08T14:59:25;99210.50;;;7.89;51.81
68994;BME280;56054;50.968;5.816;2024-03-08T15:02:39;99208.38;;;7.99;51.55
68994;BME280;56054;50.968;5.816;2024-03-08T15:05:46;99204.91;;;7.98;52.03
68994;BME280;56054;50.968;5.816;2024-03-08T15:08:53;99193.50;;;7.94;53.06
68994;BME280;56054;50.968;5.816;2024-03-08T15:12:00;99183.34;;;7.98;53.29
68994;BME280;56054;50.968;5.816;2024-03-08T15:15:07;99197.38;;;8.03;53.04
68994;BME280;56054;50.968;5.816;2024-03-08T15:18:14;99198.03;;;7.81;52.04
68994;BME280;56054;50.968;5.816;2024-03-08T15:21:21;99183.25;;;7.78;52.69
68994;BME280;56054;50.968;5.816;2024-03-08T15:24:28;99193.41;;;7.75;52.60
68994;BME280;56054;50.968;5.816;2024-03-08T15:27:35;99183.63;;;7.86;52.75
68994;BME280;56054;50.968;5.816;2024-03-08T15:30:42;99178.34;;;7.84;52.60
68994;BME280;56054;50.968;5.816;2024-03-08T15:33:49;99170.38;;;7.80;51.73
68994;BME280;56054;50.968;5.816;2024-03-08T15:36:56;99166.50;;;7.88;51.97
68994;BME280;56054;50.968;5.816;2024-03-08T15:40:03;99170.75;;;7.87;52.26
68994;BME280;56054;50.968;5.816;2024-03-08T15:43:11;99158.63;;;7.86;52.31
68994;BME280;56054;50.968;5.816;2024-03-08T15:46:18;99152.88;;;7.92;52.29
68994;BME280;56054;50.968;5.816;2024-03-08T15:49:25;99149.50;;;7.93;52.36
68994;BME280;56054;50.968;5.816;2024-03-08T15:52:39;99154.81;;;7.96;52.51
68994;BME280;56054;50.968;5.816;2024-03-08T15:55:46;99147.94;;;7.79;51.88
68994;BME280;56054;50.968;5.816;2024-03-08T15:58:53;99147.69;;;7.74;51.45
68994;BME280;56054;50.968;5.816;2024-03-08T16:02:00;99154.59;;;7.74;51.79
68994;BME280;56054;50.968;5.816;2024-03-08T16:05:07;99142.44;;;7.72;52.13
68994;BME280;56054;50.968;5.816;2024-03-08T16:08:16;99128.63;;;7.72;52.02
68994;BME280;56054;50.968;5.816;2024-03-08T16:11:23;99120.38;;;7.79;52.44
68994;BME280;56054;50.968;5.816;2024-03-08T16:14:30;99132.78;;;7.68;52.72
68994;BME280;56054;50.968;5.816;2024-03-08T16:17:37;99124.72;;;7.62;52.22
68994;BME280;56054;50.968;5.816;2024-03-08T16:20:44;99126.50;;;7.63;53.18
68994;BME280;56054;50.968;5.816;2024-03-08T16:23:51;99128.69;;;7.56;53.17
68994;BME280;56054;50.968;5.816;2024-03-08T16:26:58;99115.03;;;7.58;53.14
68994;BME280;56054;50.968;5.816;2024-03-08T16:30:06;99123.63;;;7.57;53.34
68994;BME280;56054;50.968;5.816;2024-03-08T16:33:15;99124.94;;;7.49;53.33
68994;BME280;56054;50.968;5.816;2024-03-08T16:36:22;99132.75;;;7.50;53.36
68994;BME280;56054;50.968;5.816;2024-03-08T16:39:29;99119.59;;;7.46;52.81
68994;BME280;56054;50.968;5.816;2024-03-08T16:42:36;99127.34;;;7.46;53.93
68994;BME280;56054;50.968;5.816;2024-03-08T16:45:43;99121.66;;;7.35;54.21